Time;durP1;ratioP1;P1;durP2;ratioP2;P2;SDS_P1;SDS_P2;PMS_P1;PMS_P2;Temp;Humidity;BMP_temperature;BMP_pressure;BME280_temperature;BME280_humidity;BME280_pressure;Samples;Min_cycle;Max_cycle;Signal;HPM_P1;HPM_P2
2021/07/09 00:02:32;;;;;;;27.30;21.27;;;;;;;24.59;63.00;99996.44;5106970;28;20370;-72
2021/07/09 00:04:59;;;;;;;44.75;32.00;;;;;;;24.69;62.45;100003.31;5106608;28;20036;-71
2021/07/09 00:07:24;;;;;;;43.90;37.10;;;;;;;24.63;62.59;100002.16;5085621;28;20023;-71
2021/07/09 00:09:51;;;;;;;43.35;38.60;;;;;;;24.52;63.25;100003.03;5105675;28;20028;-71
2021/07/09 00:12:16;;;;;;;42.67;35.50;;;;;;;24.56;63.28;99994.44;5107601;28;20114;-72
2021/07/09 00:14:42;;;;;;;105.88;93.85;;;;;;;24.58;63.36;99999.72;5104867;28;20103;-72
2021/07/09 00:17:08;;;;;;;129.50;115.35;;;;;;;24.57;63.50;99992.38;5107829;28;20467;-71
2021/07/09 00:19:33;;;;;;;159.27;141.50;;;;;;;24.53;63.75;99992.38;5111835;28;20015;-71
2021/07/09 00:22:00;;;;;;;123.97;110.40;;;;;;;24.51;63.86;99998.53;5095954;28;20562;-71
2021/07/09 00:24:26;;;;;;;72.72;61.38;;;;;;;24.52;63.35;99994.44;5097328;28;20429;-72
2021/07/09 00:26:51;;;;;;;45.30;37.08;;;;;;;24.59;63.00;99993.59;5109285;28;20040;-71
2021/07/09 00:29:17;;;;;;;28.65;23.73;;;;;;;24.35;63.60;99995.38;5112218;28;20074;-72
2021/07/09 00:31:42;;;;;;;22.05;19.70;;;;;;;24.20;64.43;99992.59;5109234;28;20114;-72
2021/07/09 00:34:08;;;;;;;18.70;16.58;;;;;;;24.30;63.46;99998.66;5109932;28;20026;-72
2021/07/09 00:36:35;;;;;;;17.65;14.40;;;;;;;24.19;63.86;100002.41;5105723;28;20464;-72
2021/07/09 00:39:05;;;;;;;15.30;12.55;;;;;;;24.17;64.08;100009.75;5099973;28;20035;-72
2021/07/09 00:41:30;;;;;;;;;;;;;;;24.19;64.06;100004.44;5106667;28;20047;-71
2021/07/09 00:43:56;;;;;;;13.40;12.00;;;;;;;24.38;63.08;99998.22;5102428;28;20385;-71
2021/07/09 00:46:37;;;;;;;16.30;13.13;;;;;;;24.33;63.21;100004.38;5091755;28;20066;-72
2021/07/09 00:49:04;;;;;;;17.70;13.65;;;;;;;24.30;63.52;100002.31;5090613;28;20110;-71
2021/07/09 00:51:30;;;;;;;21.63;14.85;;;;;;;24.28;64.31;100004.00;5091414;28;20031;-72
2021/07/09 00:53:56;;;;;;;21.20;13.05;;;;;;;24.42;63.76;100003.06;5079589;28;20059;-71
2021/07/09 00:56:22;;;;;;;15.98;12.65;;;;;;;24.28;64.40;100004.78;5086546;28;20039;-72
2021/07/09 00:58:49;;;;;;;13.30;12.00;;;;;;;24.37;64.43;100004.31;5097458;28;20102;-71
2021/07/09 01:01:14;;;;;;;14.85;11.82;;;;;;;24.46;63.72;100003.88;5099625;28;20024;-72
2021/07/09 01:03:40;;;;;;;12.40;11.07;;;;;;;24.46;63.75;100012.47;5104586;28;20471;-71
2021/07/09 01:06:05;;;;;;;13.55;12.20;;;;;;;24.45;63.99;100008.78;5091153;28;20114;-71
2021/07/09 01:08:32;;;;;;;14.95;11.85;;;;;;;24.45;64.11;100005.91;5105258;28;20116;-72
2021/07/09 01:10:57;;;;;;;17.65;11.40;;;;;;;24.49;64.04;100006.69;5098275;28;20101;-72
2021/07/09 01:13:23;;;;;;;17.58;11.43;;;;;;;24.43;63.98;100011.25;5108662;28;20513;-70
2021/07/09 01:15:48;;;;;;;18.70;12.25;;;;;;;24.40;63.83;100004.31;5087604;28;20031;-71
2021/07/09 01:18:14;;;;;;;14.32;12.27;;;;;;;24.47;63.80;100005.50;5108553;28;20023;-71
2021/07/09 01:20:40;;;;;;;13.77;12.30;;;;;;;24.54;63.66;100000.56;5081563;28;20051;-72
2021/07/09 01:23:06;;;;;;;15.15;11.13;;;;;;;24.50;64.14;99999.78;5101234;28;20497;-73
2021/07/09 01:25:32;;;;;;;14.00;12.13;;;;;;;24.48;64.11;99992.84;5103042;28;20552;-71
2021/07/09 01:28:00;;;;;;;12.63;11.32;;;;;;;24.41;64.27;99990.84;5099162;28;20111;-73
2021/07/09 01:30:27;;;;;;;12.88;11.55;;;;;;;24.47;64.10;100000.59;5101226;28;20024;-72
2021/07/09 01:32:53;;;;;;;11.93;10.73;;;;;;;24.44;63.97;99987.16;5093412;28;20493;-73
2021/07/09 01:35:22;;;;;;;12.73;11.00;;;;;;;24.43;63.82;99994.09;5093930;28;20105;-72
2021/07/09 01:38:02;;;;;;;11.20;9.95;;;;;;;24.39;64.31;99999.03;5078405;28;20028;-73
2021/07/09 01:40:29;;;;;;;15.02;11.98;;;;;;;24.36;64.71;99999.84;5108390;28;20080;-73
2021/07/09 01:42:55;;;;;;;12.30;11.10;;;;;;;24.27;64.62;99991.75;5106133;28;20036;-71
2021/07/09 01:45:20;;;;;;;13.18;10.90;;;;;;;24.23;64.35;99996.66;5108467;28;20023;-71
2021/07/09 01:47:46;;;;;;;12.48;11.18;;;;;;;24.09;64.67;100000.41;5105215;28;20043;-72
2021/07/09 01:50:12;;;;;;;13.85;11.38;;;;;;;24.16;65.06;100003.25;5098550;28;20549;-72
2021/07/09 01:52:38;;;;;;;13.77;12.38;;;;;;;24.26;64.54;100007.25;5102983;28;20087;-71
2021/07/09 01:55:06;;;;;;;17.08;12.38;;;;;;;24.27;64.21;99997.44;5095786;28;20469;-71
2021/07/09 01:57:32;;;;;;;17.67;11.73;;;;;;;24.17;64.63;99999.16;5101324;28;20028;-72
2021/07/09 02:00:01;;;;;;;18.20;12.15;;;;;;;24.22;64.50;100003.63;5095949;28;20035;-72
2021/07/09 02:02:27;;;;;;;26.98;12.20;;;;;;;24.28;64.76;100004.00;5093920;28;20111;-71
2021/07/09 02:04:56;;;;;;;13.77;12.20;;;;;;;24.35;63.82;100004.75;5077931;28;20119;-72
2021/07/09 02:07:24;;;;;;;16.27;13.23;;;;;;;24.27;64.20;99996.66;5108022;28;20023;-71
2021/07/09 02:09:52;;;;;;;13.20;11.38;;;;;;;24.28;64.21;100004.00;5111688;28;20043;-71
2021/07/09 02:12:20;;;;;;;13.25;11.73;;;;;;;24.28;63.59;100009.72;5093818;28;20019;-71
2021/07/09 02:14:46;;;;;;;13.35;11.38;;;;;;;24.14;64.22;100004.88;5111855;28;20046;-73
2021/07/09 02:17:14;;;;;;;15.70;12.38;;;;;;;24.07;64.54;100000.84;5090379;28;20112;-72
2021/07/09 02:19:41;;;;;;;12.77;11.43;;;;;;;24.02;64.34;99997.56;5106555;28;20595;-73
2021/07/09 02:22:10;;;;;;;19.42;10.90;;;;;;;24.09;64.08;100006.94;5085124;28;20047;-72
2021/07/09 02:24:36;;;;;;;17.50;13.10;;;;;;;24.11;64.04;100006.50;5085692;28;20040;-73
2021/07/09 02:27:03;;;;;;;17.95;12.02;;;;;;;23.85;64.75;100002.91;5098451;28;20023;-71
2021/07/09 02:29:30;;;;;;;15.55;12.00;;;;;;;23.86;64.64;100004.53;5096435;28;20531;-71
2021/07/09 02:31:56;;;;;;;28.88;11.60;;;;;;;23.90;64.95;100002.50;5079923;28;20038;-71
2021/07/09 02:34:22;;;;;;;13.77;10.95;;;;;;;23.77;64.99;100007.03;5111776;28;20550;-72
2021/07/09 02:36:47;;;;;;;24.15;12.52;;;;;;;23.80;65.23;100003.38;5111195;28;20027;-71
2021/07/09 02:39:12;;;;;;;22.80;11.68;;;;;;;23.89;64.79;99998.03;5077214;28;20028;-71
2021/07/09 02:41:39;;;;;;;18.58;11.55;;;;;;;23.80;64.87;99995.59;5085311;28;20039;-72
2021/07/09 02:44:05;;;;;;;15.05;10.88;;;;;;;23.80;65.28;99997.66;5112201;28;20031;-72
2021/07/09 02:46:31;;;;;;;23.85;11.65;;;;;;;23.71;65.27;99995.22;5102231;28;20028;-72
2021/07/09 02:48:56;;;;;;;18.85;10.68;;;;;;;23.84;64.65;99992.72;5080870;28;20028;-72
2021/07/09 02:51:22;;;;;;;21.15;11.75;;;;;;;23.78;65.18;99992.34;5107038;28;20071;-72
2021/07/09 02:53:47;;;;;;;17.17;11.57;;;;;;;23.58;66.16;99989.16;5090485;28;20145;-71
2021/07/09 02:56:13;;;;;;;13.98;12.10;;;;;;;23.70;65.73;99994.41;5098403;28;20057;-72
2021/07/09 02:58:38;;;;;;;14.05;11.65;;;;;;;23.73;65.55;99986.25;5098149;28;20039;-72
2021/07/09 03:01:04;;;;;;;22.23;13.27;;;;;;;23.72;65.26;99994.00;5110423;28;20035;-73
2021/07/09 03:03:29;;;;;;;17.67;12.15;;;;;;;23.73;65.19;99994.81;5113435;28;20034;-71
2021/07/09 03:05:54;;;;;;;13.52;11.55;;;;;;;23.58;65.60;100000.56;5113803;28;20028;-76
2021/07/09 03:08:20;;;;;;;15.02;11.70;;;;;;;23.67;65.85;100000.94;5113380;28;20144;-72
2021/07/09 03:10:45;;;;;;;16.17;11.50;;;;;;;23.64;65.51;100001.75;5085699;28;20024;-74
2021/07/09 03:13:11;;;;;;;20.17;12.98;;;;;;;23.58;66.28;99992.00;5084638;28;20032;-72
2021/07/09 03:15:36;;;;;;;15.68;12.13;;;;;;;23.68;65.59;99993.19;5104755;28;20064;-71
2021/07/09 03:18:02;;;;;;;15.43;13.43;;;;;;;23.62;66.05;99998.50;5103760;28;20496;-73
2021/07/09 03:20:27;;;;;;;20.02;13.05;;;;;;;23.61;65.92;100002.59;5099022;28;20016;-73
2021/07/09 03:22:53;;;;;;;15.27;12.07;;;;;;;23.63;65.86;100005.84;5080622;28;20564;-71
2021/07/09 03:25:18;;;;;;;13.82;12.00;;;;;;;23.60;65.91;99994.47;5101082;28;20036;-71
2021/07/09 03:27:45;;;;;;;15.85;11.77;;;;;;;23.64;66.11;99998.91;5105155;28;20085;-72
2021/07/09 03:30:12;;;;;;;12.80;11.25;;;;;;;23.76;65.70;99991.13;5112603;28;20047;-72
2021/07/09 03:32:38;;;;;;;13.98;12.45;;;;;;;23.64;65.94;99990.34;5079378;28;20193;-74
2021/07/09 03:35:04;;;;;;;15.80;13.80;;;;;;;23.66;66.25;99992.78;5100888;28;20568;-73
2021/07/09 03:37:30;;;;;;;14.45;11.93;;;;;;;23.66;65.98;99992.78;5101021;28;20027;-74
2021/07/09 03:39:55;;;;;;;16.80;12.75;;;;;;;23.67;65.30;99994.41;5097230;28;20409;-72
2021/07/09 03:42:21;;;;;;;19.58;12.50;;;;;;;23.74;64.83;99999.28;5082531;28;20036;-74
2021/07/09 03:44:46;;;;;;;24.30;13.27;;;;;;;23.74;64.69;99997.25;5079208;28;20024;-72
2021/07/09 03:47:13;;;;;;;24.23;13.18;;;;;;;23.70;65.59;99997.25;5101873;28;20051;-73
2021/07/09 03:49:38;;;;;;;18.75;11.65;;;;;;;23.78;64.81;99995.19;5094840;28;20042;-74
2021/07/09 03:52:04;;;;;;;18.80;13.45;;;;;;;23.77;64.50;99996.44;5078736;28;20052;-72
2021/07/09 03:54:29;;;;;;;14.10;12.60;;;;;;;23.65;65.17;99997.72;5094453;28;20428;-73
2021/07/09 03:56:55;;;;;;;17.52;12.20;;;;;;;23.57;65.58;99996.09;5076867;28;20549;-74
2021/07/09 03:59:21;;;;;;;12.85;11.48;;;;;;;23.53;65.60;99992.41;5076341;28;20489;-74
2021/07/09 04:01:46;;;;;;;13.85;12.45;;;;;;;23.57;65.60;99993.22;5094661;28;20032;-74
2021/07/09 04:04:11;;;;;;;14.77;13.15;;;;;;;23.64;65.55;99998.91;5084517;28;20043;-74
2021/07/09 04:06:37;;;;;;;26.20;13.98;;;;;;;23.64;65.41;99998.91;5091616;28;20043;-75
2021/07/09 04:09:03;;;;;;;18.13;12.30;;;;;;;23.58;65.60;99996.88;5110048;28;20507;-73
2021/07/09 04:11:29;;;;;;;15.27;12.30;;;;;;;23.60;65.61;99995.25;5079302;28;20089;-74
2021/07/09 04:13:54;;;;;;;17.48;12.77;;;;;;;23.59;65.67;99999.34;5103055;28;20046;-74
2021/07/09 04:16:20;;;;;;;17.70;11.90;;;;;;;23.66;65.39;99998.50;5103950;28;20035;-75
2021/07/09 04:18:45;;;;;;;14.05;12.45;;;;;;;23.47;66.19;99999.78;5100129;28;20027;-74
2021/07/09 04:21:11;;;;;;;16.85;13.15;;;;;;;23.62;65.54;100004.22;5083388;28;20024;-74
2021/07/09 04:23:37;;;;;;;15.70;13.25;;;;;;;23.73;65.53;99997.66;5086163;28;20032;-75
2021/07/09 04:26:02;;;;;;;13.88;12.45;;;;;;;23.58;66.26;100005.44;5081182;28;20382;-74
2021/07/09 04:28:28;;;;;;;16.55;11.75;;;;;;;23.52;66.50;100000.16;5104108;28;20042;-74
2021/07/09 04:30:54;;;;;;;19.45;12.82;;;;;;;23.64;65.87;100007.47;5082461;28;20035;-75
2021/07/09 04:33:22;;;;;;;13.93;12.45;;;;;;;23.72;65.93;100008.28;5093115;28;20035;-75
2021/07/09 04:35:48;;;;;;;14.90;12.43;;;;;;;23.70;65.95;100005.84;5075831;28;20419;-74
2021/07/09 04:38:13;;;;;;;17.73;12.02;;;;;;;23.70;66.28;100017.25;5082788;28;20460;-75
2021/07/09 04:40:39;;;;;;;15.63;11.82;;;;;;;23.97;64.75;100013.88;5083151;28;21284;-74
2021/07/09 04:43:04;;;;;;;18.77;12.63;;;;;;;23.96;64.96;100008.59;5089687;28;20113;-74
2021/07/09 04:45:30;;;;;;;17.52;12.38;;;;;;;24.12;64.53;100008.13;5078498;28;20413;-75
2021/07/09 04:47:55;;;;;;;14.05;12.32;;;;;;;24.19;64.04;100007.28;5087656;28;20453;-74
2021/07/09 04:50:21;;;;;;;15.00;13.32;;;;;;;24.10;64.24;100008.56;5107780;28;20027;-74
2021/07/09 04:52:46;;;;;;;14.35;12.00;;;;;;;24.16;64.34;100008.13;5072727;28;20060;-76
2021/07/09 04:55:13;;;;;;;12.98;11.50;;;;;;;24.18;64.69;100014.22;5097962;28;20034;-74
2021/07/09 04:57:38;;;;;;;15.48;11.80;;;;;;;24.20;64.50;100015.44;5098805;28;20101;-74
2021/07/09 05:00:05;;;;;;;15.48;12.10;;;;;;;24.29;64.81;100019.91;5103442;28;20036;-75
2021/07/09 05:02:31;;;;;;;12.88;11.57;;;;;;;24.30;64.06;100019.47;5091957;28;20032;-75
2021/07/09 05:04:56;;;;;;;16.17;11.65;;;;;;;24.50;63.99;100016.94;5091693;28;20094;-75
2021/07/09 05:07:22;;;;;;;13.75;12.35;;;;;;;24.48;63.24;100005.06;5095488;28;20024;-74
2021/07/09 05:09:47;;;;;;;20.15;12.07;;;;;;;24.50;63.76;100010.38;5087170;28;20035;-75
2021/07/09 05:12:13;;;;;;;17.83;12.43;;;;;;;24.57;63.11;100010.34;5102035;28;20493;-75
2021/07/09 05:14:38;;;;;;;16.30;12.77;;;;;;;24.58;62.76;100016.88;5087821;28;20028;-75
2021/07/09 05:17:04;;;;;;;15.52;12.82;;;;;;;24.67;63.04;100012.31;5101780;28;20038;-73
2021/07/09 05:19:29;;;;;;;14.50;13.02;;;;;;;24.60;63.53;100014.41;5076713;28;20040;-74
2021/07/09 05:21:55;;;;;;;18.92;13.68;;;;;;;24.62;63.26;100007.03;5095222;28;20035;-72
2021/07/09 05:24:26;;;;;;;18.55;13.55;;;;;;;24.60;63.36;99997.25;5097002;28;20056;-73
2021/07/09 05:26:52;;;;;;;13.98;11.82;;;;;;;24.68;63.22;100001.69;5092164;28;20412;-73
2021/07/09 05:29:17;;;;;;;15.32;12.32;;;;;;;24.78;63.10;99997.13;5107332;28;20404;-75
2021/07/09 05:31:43;;;;;;;19.27;11.63;;;;;;;24.84;62.28;100006.09;5091039;28;20032;-77
2021/07/09 05:34:08;;;;;;;15.90;14.15;;;;;;;25.01;61.94;100002.28;5076926;28;20126;-75
2021/07/09 05:36:36;;;;;;;14.50;13.00;;;;;;;24.98;62.22;100011.72;5087203;28;20438;-75
2021/07/09 05:39:01;;;;;;;18.75;14.25;;;;;;;25.08;61.90;100007.94;5103396;28;20042;-75
2021/07/09 05:41:27;;;;;;;14.55;11.68;;;;;;;25.17;62.23;100021.78;5100204;28;20020;-75
2021/07/09 05:43:52;;;;;;;16.58;13.43;;;;;;;25.09;61.66;100012.41;5094362;28;20027;-75
2021/07/09 05:46:18;;;;;;;27.48;15.57;;;;;;;25.02;62.21;100012.50;5081285;28;20020;-75
2021/07/09 05:48:43;;;;;;;16.63;12.40;;;;;;;25.02;62.28;100009.63;5079297;28;20024;-75
2021/07/09 05:51:09;;;;;;;14.88;13.35;;;;;;;25.12;61.49;100002.19;5106503;28;20028;-75
2021/07/09 05:53:34;;;;;;;15.77;13.52;;;;;;;24.98;61.34;100002.31;5104199;28;20066;-75
2021/07/09 05:56:01;;;;;;;27.58;15.35;;;;;;;24.99;61.93;100006.78;5092198;28;20054;-75
2021/07/09 05:58:27;;;;;;;22.27;17.02;;;;;;;25.01;61.78;100010.88;5102199;28;20028;-75
2021/07/09 06:00:52;;;;;;;21.70;19.58;;;;;;;25.08;62.06;100012.84;5072343;28;20032;-75
2021/07/09 06:03:18;;;;;;;22.42;20.23;;;;;;;25.06;61.62;100009.59;5081415;28;20032;-75
2021/07/09 06:05:43;;;;;;;23.70;21.30;;;;;;;24.97;61.93;100007.19;5110584;28;20385;-75
2021/07/09 06:08:09;;;;;;;23.77;21.23;;;;;;;25.13;62.06;100003.81;5101566;28;20535;-76
2021/07/09 06:10:36;;;;;;;21.67;19.05;;;;;;;25.21;61.29;100001.69;5103535;28;20020;-75
2021/07/09 06:13:05;;;;;;;22.42;18.50;;;;;;;25.33;60.63;100006.88;5081514;28;20416;-75
2021/07/09 06:15:33;;;;;;;23.98;19.65;;;;;;;25.26;61.41;100001.25;5105323;28;20036;-74
2021/07/09 06:17:59;;;;;;;20.92;18.73;;;;;;;25.40;61.67;99993.75;5104773;28;20028;-73
2021/07/09 06:20:24;;;;;;;24.55;18.60;;;;;;;25.58;61.37;99988.69;5103750;28;20026;-75
2021/07/09 06:22:50;;;;;;;19.65;17.55;;;;;;;25.70;61.45;99981.56;5085500;28;20336;-76
2021/07/09 06:25:16;;;;;;;23.48;19.05;;;;;;;25.76;60.55;99990.50;5100543;28;20103;-81
2021/07/09 06:27:42;;;;;;;24.58;18.52;;;;;;;25.88;60.30;99989.94;5104808;28;20058;-74
2021/07/09 06:30:08;;;;;;;20.67;18.65;;;;;;;26.04;60.11;99988.50;5212269;23;20059;-79
2021/07/09 06:32:34;;;;;;;22.35;19.75;;;;;;;26.01;59.24;99984.47;4992396;28;20030;-75
2021/07/09 06:34:59;;;;;;;25.95;19.65;;;;;;;26.04;60.45;99982.78;4993162;28;20042;-74
2021/07/09 06:37:25;;;;;;;30.52;18.92;;;;;;;26.17;59.02;99980.97;4992506;28;20037;-73
2021/07/09 06:39:50;;;;;;;22.25;17.02;;;;;;;26.15;58.29;99980.59;4991480;28;20038;-74
2021/07/09 06:42:16;;;;;;;22.27;17.75;;;;;;;26.19;58.84;99971.97;5009738;28;20088;-73
2021/07/09 06:44:42;;;;;;;25.75;17.58;;;;;;;26.18;58.93;99971.16;5008207;28;20030;-72
2021/07/09 06:47:07;;;;;;;22.33;19.45;;;;;;;26.33;59.78;99965.22;5009117;28;20052;-69
2021/07/09 06:49:33;;;;;;;25.98;19.55;;;;;;;26.48;58.98;99962.94;5009304;28;20025;-71
2021/07/09 06:51:58;;;;;;;22.38;20.13;;;;;;;26.51;58.57;99958.41;4991400;28;20147;-72
2021/07/09 06:54:24;;;;;;;26.50;20.67;;;;;;;26.51;58.04;99955.53;5008315;28;20021;-71
2021/07/09 06:56:49;;;;;;;19.95;17.23;;;;;;;26.47;57.48;99950.66;5011864;28;20022;-76
2021/07/09 06:59:15;;;;;;;25.48;19.75;;;;;;;26.61;57.59;99957.44;4994223;28;20320;-78
2021/07/09 07:01:40;;;;;;;25.95;20.50;;;;;;;26.65;58.51;99952.44;4993754;28;20033;-76
2021/07/09 07:04:07;;;;;;;21.55;19.25;;;;;;;26.74;58.16;99955.56;5011244;28;20018;-72
2021/07/09 07:06:33;;;;;;;26.70;19.33;;;;;;;26.83;57.76;99952.13;5011998;28;20064;-71
2021/07/09 07:08:58;;;;;;;21.98;19.77;;;;;;;26.84;59.19;99948.00;5013522;28;20474;-74
2021/07/09 07:11:24;;;;;;;23.60;18.60;;;;;;;27.03;56.40;99949.38;5013866;28;20463;-69
2021/07/09 07:13:49;;;;;;;19.42;17.33;;;;;;;27.19;55.67;99947.84;4996002;28;20018;-71
2021/07/09 07:16:15;;;;;;;19.80;17.75;;;;;;;27.15;55.45;99942.19;5013704;28;20109;-74
2021/07/09 07:18:40;;;;;;;18.95;17.15;;;;;;;27.18;56.41;99944.16;5013500;28;20030;-71
2021/07/09 07:21:06;;;;;;;19.35;17.42;;;;;;;27.18;55.73;99949.09;5012562;28;20058;-72
2021/07/09 07:23:32;;;;;;;26.60;17.10;;;;;;;27.16;55.79;99945.88;4998695;28;20033;-72
2021/07/09 07:25:58;;;;;;;19.30;17.35;;;;;;;27.14;56.94;99942.59;4995607;28;20154;-71
2021/07/09 07:28:23;;;;;;;17.25;15.18;;;;;;;27.26;56.12;99944.84;5013218;28;20026;-71
2021/07/09 07:30:49;;;;;;;22.45;17.33;;;;;;;27.35;56.44;99940.59;5013248;28;20053;-73
2021/07/09 07:33:14;;;;;;;19.25;17.17;;;;;;;27.54;55.81;99944.75;5006661;28;20025;-72
2021/07/09 07:35:40;;;;;;;18.02;15.55;;;;;;;27.51;55.80;99942.75;4995558;28;20042;-73
2021/07/09 07:38:07;;;;;;;23.23;14.45;;;;;;;27.50;54.11;99929.63;4995214;28;20858;-73
2021/07/09 07:40:33;;;;;;;18.38;13.57;;;;;;;27.58;52.62;99934.03;5000811;28;20033;-70
2021/07/09 07:42:58;;;;;;;18.00;13.57;;;;;;;27.63;51.86;99932.66;5000135;28;20029;-72
2021/07/09 07:45:24;;;;;;;23.08;14.20;;;;;;;27.68;52.33;99935.84;4995361;28;20130;-72
2021/07/09 07:47:50;;;;;;;15.02;12.25;;;;;;;27.66;52.52;99932.59;4995211;28;20045;-70
2021/07/09 07:50:17;;;;;;;11.10;9.95;;;;;;;27.81;50.46;99930.25;4995085;28;20056;-73
2021/07/09 07:52:43;;;;;;;10.68;9.43;;;;;;;27.92;49.11;99932.06;5012590;28;20030;-74
2021/07/09 07:55:09;;;;;;;13.10;10.52;;;;;;;28.13;49.36;99936.53;5012524;28;20107;-69
2021/07/09 07:57:35;;;;;;;11.38;10.32;;;;;;;28.08;49.53;99929.22;5012625;28;20457;-74
2021/07/09 08:00:00;;;;;;;12.85;9.75;;;;;;;28.21;49.07;99932.28;5012542;28;20034;-72
2021/07/09 08:02:25;;;;;;;12.65;8.93;;;;;;;28.24;48.46;99930.56;5012540;28;20025;-72
2021/07/09 08:04:51;;;;;;;18.23;10.73;;;;;;;28.14;49.69;99930.34;5012555;28;20037;-69
2021/07/09 08:07:17;;;;;;;10.88;8.82;;;;;;;28.12;47.52;99927.09;5012110;28;20049;-72
2021/07/09 08:09:43;;;;;;;12.95;9.43;;;;;;;28.17;48.15;99922.88;5012416;28;20037;-70
2021/07/09 08:12:08;;;;;;;13.20;8.52;;;;;;;28.19;48.17;99922.47;4994630;28;20119;-71
2021/07/09 08:14:35;;;;;;;13.35;8.45;;;;;;;28.32;46.74;99919.72;5012219;28;20024;-71
2021/07/09 08:17:01;;;;;;;9.75;8.45;;;;;;;28.59;47.63;99914.50;5011980;28;20084;-71
2021/07/09 08:19:26;;;;;;;13.88;7.50;;;;;;;28.69;46.00;99915.47;4994460;28;20050;-71
2021/07/09 08:21:52;;;;;;;11.18;8.80;;;;;;;28.53;45.76;99915.50;4994650;28;20026;-72
2021/07/09 08:24:18;;;;;;;12.75;8.73;;;;;;;28.56;46.82;99912.53;5012181;28;20025;-73
2021/07/09 08:26:45;;;;;;;8.23;7.53;;;;;;;28.54;45.99;99911.34;5012110;28;20454;-76
2021/07/09 08:29:11;;;;;;;9.50;8.57;;;;;;;28.51;46.06;99897.88;5011928;28;20022;-72
2021/07/09 08:31:36;;;;;;;20.67;9.25;;;;;;;28.69;46.07;99903.19;4994394;28;20054;-73
2021/07/09 08:34:02;;;;;;;14.07;9.02;;;;;;;28.73;47.83;99893.19;4994177;28;20033;-77
2021/07/09 08:36:28;;;;;;;11.30;10.15;;;;;;;28.85;46.22;99893.75;4994483;28;20117;-73
2021/07/09 08:38:54;;;;;;;10.20;8.93;;;;;;;29.05;46.58;99896.50;5011849;28;20029;-74
2021/07/09 08:41:20;;;;;;;11.60;8.90;;;;;;;29.20;44.83;99891.16;5012114;28;20037;-71
2021/07/09 08:43:46;;;;;;;11.23;10.13;;;;;;;29.45;46.62;99895.44;5011861;28;20106;-75
2021/07/09 08:46:13;;;;;;;10.60;9.63;;;;;;;29.27;47.18;99895.91;5012063;28;20526;-76
2021/07/09 08:48:40;;;;;;;12.30;9.95;;;;;;;29.19;47.30;99901.03;5011605;28;20058;-76
2021/07/09 08:51:06;;;;;;;30.85;12.45;;;;;;;29.34;46.57;99894.91;4994090;28;20130;-77
2021/07/09 08:53:32;;;;;;;24.85;11.75;;;;;;;29.46;47.24;99897.03;5011413;28;20109;-78
2021/07/09 08:55:57;;;;;;;11.70;10.40;;;;;;;29.59;45.80;99888.41;5011894;28;20034;-78
2021/07/09 08:58:24;;;;;;;16.80;12.43;;;;;;;29.55;46.58;99879.88;4993673;28;20030;-77
2021/07/09 09:00:49;;;;;;;14.77;11.30;;;;;;;29.66;46.67;99884.50;4993949;28;20037;-78
2021/07/09 09:03:18;;;;;;;13.27;9.85;;;;;;;29.79;46.33;99885.34;5011545;28;20034;-72
2021/07/09 09:05:44;;;;;;;13.13;9.80;;;;;;;29.67;43.84;99886.13;5011800;28;20083;-76
2021/07/09 09:08:11;;;;;;;60.60;13.00;;;;;;;29.72;44.76;99879.81;5011360;28;20037;-73
2021/07/09 09:10:50;;;;;;;11.50;8.70;;;;;;;29.58;43.38;99880.25;5011306;28;20038;-74
2021/07/09 09:13:21;;;;;;;13.80;9.07;;;;;;;29.67;42.32;99880.38;5011383;28;20040;-74
2021/07/09 09:16:04;;;;;;;9.85;8.88;;;;;;;29.64;42.53;99879.22;4993502;28;20514;-73
2021/07/09 09:18:33;;;;;;;10.07;8.73;;;;;;;29.74;41.99;99871.50;5010711;28;20026;-80
2021/07/09 09:21:00;;;;;;;11.77;8.65;;;;;;;29.82;41.84;99867.16;5011351;28;20348;-74
2021/07/09 09:23:28;;;;;;;9.85;8.48;;;;;;;30.01;42.26;99866.59;5011414;28;20041;-69
2021/07/09 09:25:54;;;;;;;15.93;9.45;;;;;;;30.07;41.76;99862.69;5011338;28;20022;-76
2021/07/09 09:28:20;;;;;;;10.63;9.50;;;;;;;29.98;42.08;99868.31;5010981;28;20030;-75
2021/07/09 09:30:51;;;;;;;9.65;8.75;;;;;;;30.05;43.54;99868.13;5010786;28;20057;-72
2021/07/09 09:33:17;;;;;;;8.43;7.57;;;;;;;30.14;40.18;99878.13;5011017;28;20022;-74
2021/07/09 09:35:47;;;;;;;9.05;6.95;;;;;;;30.12;41.09;99867.88;5010603;28;20037;-74
2021/07/09 09:38:15;;;;;;;7.50;6.80;;;;;;;30.22;38.99;99859.34;4992917;28;20038;-73
2021/07/09 09:40:43;;;;;;;7.72;6.93;;;;;;;30.16;41.38;99858.28;5009462;28;20530;-76
2021/07/09 09:43:15;;;;;;;7.25;6.55;;;;;;;30.16;41.25;99855.41;5008633;28;20041;-74
2021/07/09 09:45:41;;;;;;;6.28;5.68;;;;;;;30.25;37.84;99849.75;5008328;28;20036;-75
2021/07/09 09:48:11;;;;;;;6.45;5.72;;;;;;;30.42;39.46;99852.53;4994204;28;20515;-74
2021/07/09 09:50:48;;;;;;;5.63;5.10;;;;;;;30.37;39.59;99860.47;5007331;28;20399;-74
2021/07/09 09:53:15;;;;;;;7.22;5.57;;;;;;;30.64;37.74;99856.28;5008586;28;20527;-74
2021/07/09 09:55:42;;;;;;;4.97;4.50;;;;;;;30.62;35.06;99850.16;4992431;28;20124;-75
2021/07/09 09:58:18;;;;;;;5.10;4.70;;;;;;;30.85;36.80;99850.25;4993078;28;20503;-73
2021/07/09 10:00:48;;;;;;;5.60;4.28;;;;;;;31.18;36.75;99842.00;4980806;28;20091;-74
2021/07/09 10:03:14;;;;;;;8.68;5.43;;;;;;;31.30;36.05;99840.34;5010757;28;20026;-73
2021/07/09 10:05:42;;;;;;;6.50;5.88;;;;;;;31.06;36.93;99840.00;4992977;28;20045;-74
2021/07/09 10:08:12;;;;;;;11.10;5.78;;;;;;;31.07;38.38;99839.53;4993046;28;20026;-81
2021/07/09 10:10:42;;;;;;;5.70;5.05;;;;;;;31.33;35.40;99832.84;4992754;28;20036;-76
2021/07/09 10:13:08;;;;;;;;;;;;;;;31.32;34.10;99832.03;5011108;28;20509;-74
2021/07/09 10:15:35;;;;;;;7.18;5.38;;;;;;;31.17;34.57;99837.53;5010617;28;19928;-77
2021/07/09 10:18:01;;;;;;;6.13;4.97;;;;;;;31.24;33.60;99828.59;4992861;28;20073;-74
2021/07/09 10:20:28;;;;;;;6.00;5.28;;;;;;;31.33;33.50;99818.38;5010360;28;20514;-77
2021/07/09 10:22:54;;;;;;;14.30;5.55;;;;;;;31.26;36.42;99821.56;5010460;28;20028;-74
2021/07/09 10:25:23;;;;;;;8.90;5.10;;;;;;;31.29;34.52;99817.72;5010575;28;20080;-77
2021/07/09 10:27:49;;;;;;;5.28;4.78;;;;;;;31.33;36.19;99819.22;5010465;28;20026;-76
2021/07/09 10:30:14;;;;;;;14.90;4.70;;;;;;;31.26;32.43;99807.91;5013496;28;20052;-74
2021/07/09 10:32:46;;;;;;;6.68;4.55;;;;;;;31.24;33.56;99813.38;5014156;28;20124;-76
2021/07/09 10:35:30;;;;;;;4.95;4.47;;;;;;;31.40;34.40;99803.69;4996671;28;20034;-74
2021/07/09 10:38:19;;;;;;;7.72;3.75;;;;;;;31.45;34.25;99796.50;5014050;28;20430;-74
2021/07/09 10:40:45;;;;;;;7.40;4.85;;;;;;;31.47;34.60;99791.81;4996703;28;20309;-74
2021/07/09 10:43:10;;;;;;;5.65;3.97;;;;;;;31.62;32.97;99789.19;5013982;28;20069;-76
2021/07/09 10:45:40;;;;;;;4.28;3.28;;;;;;;31.68;33.12;99785.66;5013810;28;20072;-77
2021/07/09 10:48:10;;;;;;;;;;;;;;;31.71;33.53;99782.63;5012660;28;20053;-77
2021/07/09 10:50:49;;;;;;;8.43;3.15;;;;;;;31.56;33.00;99784.50;5013502;28;19948;-76
2021/07/09 10:53:15;;;;;;;5.73;3.73;;;;;;;31.53;33.67;99789.13;5009032;28;20026;-77
2021/07/09 10:55:43;;;;;;;5.93;2.72;;;;;;;31.36;32.60;99791.44;5013534;28;20476;-76
2021/07/09 10:58:09;;;;;;;8.05;3.28;;;;;;;31.49;34.72;99788.47;5013465;28;20022;-77
2021/07/09 11:01:05;;;;;;;6.45;3.30;;;;;;;31.58;34.12;99788.53;5013445;28;20444;-77
2021/07/09 11:03:39;;;;;;;4.10;2.97;;;;;;;31.62;31.58;99777.63;5009398;28;20033;-77
2021/07/09 11:06:19;;;;;;;4.20;2.95;;;;;;;31.70;31.54;99783.13;5013531;28;20033;-77
2021/07/09 11:08:50;;;;;;;4.72;2.92;;;;;;;31.71;31.07;99773.97;4995827;28;20028;-76
2021/07/09 11:11:28;;;;;;;3.53;2.55;;;;;;;31.82;32.24;99781.44;5013084;28;20066;-77
2021/07/09 11:13:58;;;;;;;5.35;2.83;;;;;;;31.88;32.10;99776.66;5012957;28;20083;-77
2021/07/09 11:16:27;;;;;;;5.32;3.08;;;;;;;31.89;31.02;99772.47;4995526;28;20045;-77
2021/07/09 11:19:04;;;;;;;3.67;2.90;;;;;;;31.89;32.46;99763.78;5012985;28;20033;-77